Time;durP1;ratioP1;P1;durP2;ratioP2;P2;SDS_P1;SDS_P2;PMS_P1;PMS_P2;Temp;Humidity;BMP_temperature;BMP_pressure;BME280_temperature;BME280_humidity;BME280_pressure;Samples;Min_cycle;Max_cycle;Signal;HPM_P1;HPM_P2
2022/10/01 00:00:50;;;;;;;2.50;1.48;;;14.50;51.60;;;;;;4985698;28;20061;-52
2022/10/01 00:03:18;;;;;;;4.05;1.77;;;14.40;51.60;;;;;;4985922;28;20058;-45
2022/10/01 00:05:46;;;;;;;3.40;1.65;;;14.40;51.70;;;;;;4984690;28;20046;-49
2022/10/01 00:08:15;;;;;;;4.18;2.22;;;14.40;51.80;;;;;;4987542;28;20518;-47
2022/10/01 00:10:43;;;;;;;4.88;2.33;;;14.40;51.90;;;;;;4990763;28;20392;-48
2022/10/01 00:13:11;;;;;;;4.88;2.40;;;14.40;52.00;;;;;;4989333;28;20054;-49
2022/10/01 00:15:40;;;;;;;4.75;2.33;;;14.40;52.10;;;;;;4984214;28;20084;-49
2022/10/01 00:18:09;;;;;;;4.82;2.42;;;14.40;52.10;;;;;;4990998;28;20054;-53
2022/10/01 00:20:40;;;;;;;4.75;2.45;;;14.40;52.30;;;;;;4987172;28;20415;-49
2022/10/01 00:23:08;;;;;;;4.47;2.33;;;14.40;52.40;;;;;;4991582;28;20058;-52
2022/10/01 00:25:35;;;;;;;2.95;2.05;;;14.30;52.40;;;;;;4984491;28;20081;-47
2022/10/01 00:28:02;;;;;;;3.45;2.28;;;14.30;52.50;;;;;;4990752;28;20061;-52
2022/10/01 00:30:31;;;;;;;5.70;2.80;;;14.40;52.60;;;;;;4990370;28;20054;-52
2022/10/01 00:32:58;;;;;;;3.33;2.00;;;14.40;52.70;;;;;;4992152;28;20054;-51
2022/10/01 00:35:26;;;;;;;4.57;2.30;;;14.40;52.70;;;;;;4989077;28;20054;-50
2022/10/01 00:37:53;;;;;;;4.38;2.30;;;14.40;52.80;;;;;;4991377;28;20046;-52
2022/10/01 00:40:22;;;;;;;3.40;2.03;;;14.40;52.90;;;;;;4988350;28;20046;-49
2022/10/01 00:42:50;;;;;;;3.75;1.65;;;14.40;52.90;;;;;;4988426;28;20060;-47
2022/10/01 00:45:17;;;;;;;3.17;1.75;;;14.40;52.90;;;;;;4984463;28;20061;-51
2022/10/01 00:47:50;;;;;;;2.80;2.05;;;14.40;52.90;;;;;;4989092;28;20050;-50
2022/10/01 00:50:23;;;;;;;4.47;1.58;;;14.40;53.00;;;;;;4986231;28;20050;-50
2022/10/01 00:52:54;;;;;;;4.97;2.20;;;14.50;53.00;;;;;;4985034;28;20058;-51
2022/10/01 00:55:26;;;;;;;3.55;1.90;;;14.50;53.10;;;;;;4983163;28;20446;-52
2022/10/01 00:57:54;;;;;;;3.85;1.75;;;14.50;53.10;;;;;;4986288;28;20497;-46
2022/10/01 01:00:23;;;;;;;2.88;1.88;;;14.50;53.00;;;;;;4983112;28;20061;-43
2022/10/01 01:02:52;;;;;;;3.75;1.95;;;14.50;53.00;;;;;;4980159;28;20061;-42
2022/10/01 01:05:20;;;;;;;2.60;1.75;;;14.50;53.00;;;;;;4978278;28;20731;-48
2022/10/01 01:07:51;;;;;;;5.30;1.90;;;14.50;53.00;;;;;;4982368;28;20058;-40
2022/10/01 01:10:26;;;;;;;1.67;1.40;;;14.60;53.20;;;;;;4981768;28;20108;-41
2022/10/01 01:13:06;;;;;;;4.47;1.90;;;14.60;53.20;;;;;;4983203;28;20080;-41
2022/10/01 01:15:38;;;;;;;3.15;1.88;;;14.60;53.70;;;;;;4974855;28;20072;-41
2022/10/01 01:18:13;;;;;;;3.03;1.65;;;14.60;53.80;;;;;;4983905;28;20058;-41
2022/10/01 01:21:11;;;;;;;5.00;1.88;;;14.70;54.00;;;;;;4976549;28;20058;-46
2022/10/01 01:23:56;;;;;;;5.60;1.83;;;14.70;54.30;;;;;;4967166;28;20077;-41
2022/10/01 01:26:32;;;;;;;1.80;1.40;;;14.70;54.50;;;;;;4987045;28;20061;-40
2022/10/01 01:29:07;;;;;;;2.75;1.75;;;14.70;54.30;;;;;;4989371;28;20100;-42
2022/10/01 01:31:40;;;;;;;3.20;1.92;;;14.70;54.40;;;;;;4987210;28;20499;-39
2022/10/01 01:34:11;;;;;;;3.42;1.55;;;14.70;54.60;;;;;;4987716;28;20418;-40
2022/10/01 01:36:44;;;;;;;3.25;1.60;;;14.70;54.60;;;;;;4982493;28;20058;-41
2022/10/01 01:39:14;;;;;;;4.50;1.50;;;14.70;54.80;;;;;;4983348;28;20491;-39
2022/10/01 01:42:05;;;;;;;2.45;1.58;;;14.70;54.80;;;;;;4987323;28;20054;-40
2022/10/01 01:44:38;;;;;;;6.82;1.65;;;14.70;55.10;;;;;;4986448;28;20050;-44
2022/10/01 01:47:09;;;;;;;2.03;1.63;;;14.70;55.00;;;;;;4981944;28;20386;-43
2022/10/01 01:49:37;;;;;;;5.90;1.75;;;14.70;55.10;;;;;;4986666;28;20061;-39
2022/10/01 01:52:12;;;;;;;3.17;1.63;;;14.70;55.20;;;;;;4989804;28;20058;-40
2022/10/01 01:54:40;;;;;;;3.05;1.80;;;14.70;55.30;;;;;;4986837;28;20058;-41
2022/10/01 01:57:08;;;;;;;2.25;1.23;;;14.70;55.50;;;;;;4985281;28;20482;-39
2022/10/01 01:59:37;;;;;;;2.20;1.40;;;14.70;55.60;;;;;;4986233;28;20066;-46
2022/10/01 02:02:06;;;;;;;2.65;1.58;;;14.70;55.70;;;;;;4986535;28;20077;-41
2022/10/01 02:04:38;;;;;;;3.00;1.77;;;14.70;55.70;;;;;;4989332;28;20054;-41
2022/10/01 02:07:26;;;;;;;2.15;1.45;;;14.60;55.90;;;;;;4988738;28;20058;-42
2022/10/01 02:10:04;;;;;;;3.42;1.83;;;14.60;56.00;;;;;;4986513;28;20065;-40
2022/10/01 02:12:44;;;;;;;2.75;1.42;;;14.60;55.90;;;;;;4987552;28;20061;-42
2022/10/01 02:15:20;;;;;;;2.30;1.40;;;14.60;56.00;;;;;;4985370;28;20061;-39
2022/10/01 02:17:53;;;;;;;2.72;1.60;;;14.60;55.90;;;;;;4988369;28;20050;-39
2022/10/01 02:20:28;;;;;;;4.70;1.98;;;14.60;56.00;;;;;;4985564;28;20502;-41
2022/10/01 02:22:57;;;;;;;;;;;14.60;56.10;;;;;;4985253;28;20733;-40
2022/10/01 02:25:29;;;;;;;4.05;1.98;;;14.60;56.00;;;;;;4985925;28;19926;-41
2022/10/01 02:28:02;;;;;;;2.10;1.77;;;14.60;56.00;;;;;;4985569;28;20375;-43
2022/10/01 02:30:35;;;;;;;2.78;1.50;;;14.60;56.10;;;;;;4967312;28;20054;-44
2022/10/01 02:33:05;;;;;;;3.20;2.03;;;14.60;56.30;;;;;;4984038;28;20053;-42
2022/10/01 02:35:35;;;;;;;2.13;1.60;;;14.60;56.50;;;;;;4992529;28;20501;-47
2022/10/01 02:38:06;;;;;;;6.63;1.90;;;14.60;56.60;;;;;;4993278;28;20050;-46
2022/10/01 02:40:36;;;;;;;3.25;2.13;;;14.50;56.60;;;;;;4992236;28;20046;-53
2022/10/01 02:43:11;;;;;;;3.67;1.70;;;14.50;56.80;;;;;;4988177;28;20114;-51
2022/10/01 02:45:42;;;;;;;9.38;2.38;;;14.50;57.00;;;;;;4987089;28;20054;-47
2022/10/01 02:48:12;;;;;;;3.60;1.70;;;14.50;57.10;;;;;;4989064;28;20383;-53
2022/10/01 02:50:48;;;;;;;4.15;1.88;;;14.40;57.20;;;;;;4988999;28;20054;-43
2022/10/01 02:53:22;;;;;;;5.82;1.70;;;14.40;57.40;;;;;;4980309;28;20061;-44
2022/10/01 02:55:49;;;;;;;;;;;14.40;57.40;;;;;;4982064;28;20065;-41
2022/10/01 02:58:17;;;;;;;2.42;1.52;;;14.40;57.40;;;;;;4982520;28;19929;-41
2022/10/01 03:00:45;;;;;;;2.47;1.90;;;14.40;57.30;;;;;;4983670;28;21428;-42
2022/10/01 03:03:13;;;;;;;4.32;2.25;;;14.40;57.60;;;;;;4980503;28;20061;-43
2022/10/01 03:05:40;;;;;;;3.28;2.00;;;14.30;57.80;;;;;;4983341;28;20062;-40
2022/10/01 03:08:07;;;;;;;4.40;2.00;;;14.30;58.40;;;;;;4982618;28;20062;-42
2022/10/01 03:10:34;;;;;;;3.80;1.92;;;14.30;58.10;;;;;;4984273;28;20057;-46
2022/10/01 03:13:02;;;;;;;5.32;2.38;;;14.30;58.20;;;;;;4980211;28;20061;-45
2022/10/01 03:15:29;;;;;;;3.67;2.25;;;14.20;58.40;;;;;;4981199;28;20517;-43
2022/10/01 03:17:57;;;;;;;4.15;2.22;;;14.20;58.50;;;;;;4982525;28;20058;-43
2022/10/01 03:20:25;;;;;;;2.58;1.88;;;14.20;58.70;;;;;;4982684;28;20062;-39
2022/10/01 03:22:52;;;;;;;4.03;1.73;;;14.20;58.70;;;;;;4980028;28;20050;-41
2022/10/01 03:25:19;;;;;;;3.60;1.98;;;14.20;58.70;;;;;;4982470;28;20058;-44
2022/10/01 03:27:47;;;;;;;3.33;1.92;;;14.20;58.80;;;;;;4984829;28;20058;-41
2022/10/01 03:30:14;;;;;;;4.38;1.92;;;14.20;59.00;;;;;;4980689;28;20058;-41
2022/10/01 03:32:41;;;;;;;4.35;1.83;;;14.20;59.10;;;;;;4980645;28;20058;-40
2022/10/01 03:35:10;;;;;;;5.72;1.95;;;14.20;59.20;;;;;;4981234;28;20055;-42
2022/10/01 03:37:37;;;;;;;2.92;2.00;;;14.20;59.30;;;;;;4979276;28;20058;-40
2022/10/01 03:40:06;;;;;;;2.65;2.08;;;14.20;59.50;;;;;;4981952;28;20415;-40
2022/10/01 03:42:33;;;;;;;3.50;2.03;;;14.10;59.50;;;;;;4983916;28;20054;-39
2022/10/01 03:45:00;;;;;;;1.80;1.42;;;14.20;59.70;;;;;;4978988;28;20058;-46
2022/10/01 03:47:27;;;;;;;3.33;1.60;;;14.20;59.80;;;;;;4981341;28;20050;-42
2022/10/01 03:49:55;;;;;;;5.00;1.90;;;14.10;59.80;;;;;;4982445;28;20050;-44
2022/10/01 03:52:23;;;;;;;3.20;1.80;;;14.10;60.00;;;;;;4979512;28;20054;-45
2022/10/01 03:54:50;;;;;;;3.45;2.17;;;14.10;60.00;;;;;;4982953;28;20057;-39
2022/10/01 03:57:18;;;;;;;5.95;1.70;;;14.10;60.20;;;;;;4979874;28;20060;-46
2022/10/01 03:59:45;;;;;;;5.00;2.00;;;14.10;60.30;;;;;;4983027;28;20065;-39
2022/10/01 04:02:12;;;;;;;2.55;1.75;;;14.10;60.40;;;;;;4980066;28;20061;-42
2022/10/01 04:04:39;;;;;;;2.72;1.67;;;14.10;60.60;;;;;;4984056;28;20406;-44
2022/10/01 04:07:06;;;;;;;3.97;1.38;;;14.10;60.70;;;;;;4981684;28;20054;-43
2022/10/01 04:09:36;;;;;;;1.58;1.38;;;14.10;60.60;;;;;;4978590;28;20073;-42
2022/10/01 04:12:03;;;;;;;1.60;1.50;;;14.10;60.70;;;;;;4977886;28;20054;-41
2022/10/01 04:14:31;;;;;;;2.70;1.25;;;14.10;60.70;;;;;;4981235;28;20058;-44
2022/10/01 04:16:58;;;;;;;2.88;1.15;;;14.10;60.80;;;;;;4973860;28;21194;-41
2022/10/01 04:19:26;;;;;;;3.45;1.20;;;14.10;60.90;;;;;;4977290;28;20050;-41
2022/10/01 04:21:53;;;;;;;1.50;0.90;;;14.20;60.90;;;;;;4976567;28;20414;-41
2022/10/01 04:24:20;;;;;;;2.55;1.02;;;14.20;60.90;;;;;;4980683;28;20054;-40
2022/10/01 04:26:50;;;;;;;3.22;0.90;;;14.20;61.00;;;;;;4980972;28;20062;-41
2022/10/01 04:29:18;;;;;;;2.85;1.30;;;14.20;61.10;;;;;;4982522;28;20057;-42
2022/10/01 04:31:45;;;;;;;0.95;0.65;;;14.20;61.10;;;;;;4979165;28;20053;-48
2022/10/01 04:34:12;;;;;;;0.70;0.60;;;14.20;61.20;;;;;;4980242;28;20521;-44
2022/10/01 04:36:39;;;;;;;1.08;0.60;;;14.20;61.30;;;;;;4978030;28;20050;-43
2022/10/01 04:39:07;;;;;;;6.32;3.13;;;14.20;61.30;;;;;;4981066;28;20053;-47
2022/10/01 04:41:34;;;;;;;2.42;1.30;;;14.20;61.40;;;;;;4981581;28;20057;-48
2022/10/01 04:44:03;;;;;;;1.50;0.55;;;14.20;61.50;;;;;;4981588;28;20426;-43
2022/10/01 04:46:30;;;;;;;1.13;0.50;;;14.20;61.50;;;;;;4981301;28;20061;-44
2022/10/01 04:48:58;;;;;;;0.82;0.40;;;14.20;61.40;;;;;;4984152;28;20453;-43
2022/10/01 04:51:25;;;;;;;0.47;0.43;;;14.20;61.50;;;;;;4984019;28;20054;-41
2022/10/01 04:53:52;;;;;;;0.55;0.30;;;14.20;61.60;;;;;;4981713;28;20050;-45
2022/10/01 04:56:20;;;;;;;0.40;0.32;;;14.20;61.60;;;;;;4982908;28;20065;-46
2022/10/01 04:58:47;;;;;;;0.38;0.38;;;14.20;61.70;;;;;;4982713;28;20561;-43
2022/10/01 05:01:15;;;;;;;0.30;0.30;;;14.20;61.60;;;;;;4981056;28;20058;-42
2022/10/01 05:03:43;;;;;;;0.55;0.35;;;14.20;61.80;;;;;;4979811;28;21074;-44
2022/10/01 05:06:10;;;;;;;0.47;0.25;;;14.30;61.90;;;;;;4980473;28;20576;-40
2022/10/01 05:08:37;;;;;;;4.60;1.67;;;14.30;62.00;;;;;;4979355;28;20614;-45
2022/10/01 05:11:05;;;;;;;2.35;0.50;;;14.30;62.00;;;;;;4980777;28;20498;-48
2022/10/01 05:13:32;;;;;;;0.55;0.40;;;14.30;62.00;;;;;;4982061;28;20521;-41
2022/10/01 05:16:01;;;;;;;0.55;0.20;;;14.30;62.00;;;;;;4979951;28;20058;-40
2022/10/01 05:18:29;;;;;;;0.45;0.30;;;14.30;62.00;;;;;;4982612;28;20061;-46
2022/10/01 05:20:57;;;;;;;0.55;0.40;;;14.30;62.00;;;;;;4981493;28;20061;-42
2022/10/01 05:23:24;;;;;;;0.50;0.38;;;14.30;62.00;;;;;;4981898;28;20065;-44
2022/10/01 05:25:51;;;;;;;0.68;0.25;;;14.30;62.00;;;;;;4980233;28;20054;-45
2022/10/01 05:28:18;;;;;;;1.88;0.28;;;14.30;62.10;;;;;;4983377;28;20058;-44
2022/10/01 05:30:45;;;;;;;0.28;0.20;;;14.30;62.00;;;;;;4979121;28;20058;-44
2022/10/01 05:33:13;;;;;;;2.58;0.20;;;14.30;62.00;;;;;;4983308;28;20530;-42
2022/10/01 05:35:42;;;;;;;0.25;0.25;;;14.30;62.10;;;;;;4979595;28;20054;-49
2022/10/01 05:38:09;;;;;;;3.20;1.40;;;14.30;62.00;;;;;;4981225;28;20411;-40
2022/10/01 05:40:36;;;;;;;0.90;0.60;;;14.40;62.10;;;;;;4980507;28;20051;-42
2022/10/01 05:43:04;;;;;;;0.95;0.30;;;14.40;62.00;;;;;;4982690;28;20058;-40
2022/10/01 05:45:32;;;;;;;1.17;0.35;;;14.40;62.00;;;;;;4976906;28;20046;-41
2022/10/01 05:48:00;;;;;;;2.83;0.20;;;14.40;62.10;;;;;;4981384;28;20054;-47
2022/10/01 05:50:30;;;;;;;0.30;0.25;;;14.40;62.00;;;;;;4981299;28;20042;-42
2022/10/01 05:52:59;;;;;;;0.60;0.20;;;14.40;62.00;;;;;;4978933;28;20054;-46
2022/10/01 05:55:30;;;;;;;2.17;0.20;;;14.40;62.00;;;;;;4977224;28;20061;-45
2022/10/01 05:57:59;;;;;;;0.82;0.30;;;14.40;62.00;;;;;;4982357;28;20050;-45
2022/10/01 06:00:27;;;;;;;0.45;0.20;;;14.40;62.00;;;;;;4979965;28;20621;-40
2022/10/01 06:02:55;;;;;;;0.40;0.30;;;14.40;62.00;;;;;;4980585;28;20062;-43
2022/10/01 06:05:23;;;;;;;0.45;0.22;;;14.40;62.00;;;;;;4978226;28;20058;-46
2022/10/01 06:07:52;;;;;;;0.30;0.22;;;14.40;62.00;;;;;;4980215;28;20054;-42
2022/10/01 06:10:21;;;;;;;1.08;0.32;;;14.40;62.00;;;;;;4978114;28;20050;-44
2022/10/01 06:12:49;;;;;;;1.10;0.15;;;14.40;62.10;;;;;;4972656;28;20076;-48
2022/10/01 06:15:17;;;;;;;0.10;0.10;;;14.40;62.10;;;;;;4967398;28;20058;-41
2022/10/01 06:17:45;;;;;;;0.68;0.22;;;14.40;62.20;;;;;;4973441;28;20054;-42
2022/10/01 06:20:15;;;;;;;0.13;0.13;;;14.40;62.40;;;;;;4971587;28;20529;-41
2022/10/01 06:22:43;;;;;;;0.17;0.10;;;14.40;62.30;;;;;;4971444;28;20062;-42
2022/10/01 06:25:14;;;;;;;0.22;0.20;;;14.40;62.20;;;;;;4970293;28;20054;-43
2022/10/01 06:27:42;;;;;;;0.10;0.10;;;14.40;62.20;;;;;;4971863;28;20049;-46
2022/10/01 06:30:10;;;;;;;0.30;0.10;;;14.50;62.20;;;;;;4974315;28;20050;-45
2022/10/01 06:32:38;;;;;;;3.30;0.35;;;14.40;62.30;;;;;;4974586;28;21123;-44
2022/10/01 06:35:06;;;;;;;0.35;0.20;;;14.50;62.30;;;;;;4970307;28;20054;-45
2022/10/01 06:37:37;;;;;;;0.70;0.20;;;14.50;62.40;;;;;;4972911;28;20063;-44
2022/10/01 06:40:05;;;;;;;1.25;0.17;;;14.50;62.40;;;;;;4977238;28;20384;-50
2022/10/01 06:42:32;;;;;;;0.50;0.20;;;14.50;62.20;;;;;;4973261;28;20463;-46
2022/10/01 06:45:01;;;;;;;1.33;0.13;;;14.50;62.10;;;;;;4973122;28;20065;-49
2022/10/01 06:47:28;;;;;;;0.35;0.28;;;14.50;62.30;;;;;;4971063;28;20650;-46
2022/10/01 06:49:55;;;;;;;0.38;0.30;;;14.50;62.10;;;;;;4973359;28;20054;-42
2022/10/01 06:55:08;;;;;;;0.10;0.10;;;14.60;62.10;;;;;;4982428;28;20407;-45
2022/10/01 06:57:35;;;;;;;0.30;0.10;;;14.60;62.10;;;;;;4972642;28;20054;-43
2022/10/01 07:00:05;;;;;;;0.40;0.17;;;14.60;62.20;;;;;;4977358;28;20609;-47
2022/10/01 07:02:32;;;;;;;0.10;0.10;;;14.60;62.10;;;;;;4983829;28;20054;-43
2022/10/01 07:04:59;;;;;;;0.13;0.00;;;14.60;62.10;;;;;;4981707;28;20077;-43
2022/10/01 07:07:29;;;;;;;4.22;0.52;;;14.70;62.00;;;;;;4979373;28;20061;-41
2022/10/01 07:09:57;;;;;;;1.00;0.60;;;14.70;62.20;;;;;;4981820;28;20073;-45
2022/10/01 07:12:24;;;;;;;1.08;0.10;;;14.70;62.40;;;;;;4981212;28;20053;-44
2022/10/01 07:14:52;;;;;;;0.00;0.00;;;14.70;62.50;;;;;;4981920;28;20066;-46
2022/10/01 07:17:20;;;;;;;0.20;0.10;;;14.70;62.50;;;;;;4982766;28;20058;-42
2022/10/01 07:19:48;;;;;;;0.17;0.10;;;14.80;62.70;;;;;;4983321;28;20432;-43
2022/10/01 07:22:16;;;;;;;0.20;0.20;;;14.80;62.70;;;;;;4982851;28;20061;-44
2022/10/01 07:24:44;;;;;;;0.30;0.20;;;14.80;62.60;;;;;;4983082;28;20438;-42
2022/10/01 07:27:11;;;;;;;0.10;0.10;;;14.80;62.60;;;;;;4979701;28;20054;-45
2022/10/01 07:29:38;;;;;;;0.00;0.00;;;14.80;62.70;;;;;;4980065;28;20058;-45
2022/10/01 07:32:07;;;;;;;0.00;0.00;;;14.80;62.60;;;;;;4975007;28;20398;-43
2022/10/01 07:34:39;;;;;;;0.25;0.10;;;14.80;62.70;;;;;;4975534;28;20510;-46
2022/10/01 07:37:06;;;;;;;0.13;0.13;;;14.80;62.80;;;;;;4977930;28;20054;-43
2022/10/01 07:39:34;;;;;;;4.20;1.67;;;14.80;62.80;;;;;;4978694;28;20511;-42
2022/10/01 07:42:01;;;;;;;0.30;0.20;;;14.90;62.90;;;;;;4970887;28;20057;-42
2022/10/01 07:44:28;;;;;;;0.38;0.20;;;14.90;63.00;;;;;;4969798;28;20058;-46
2022/10/01 07:46:56;;;;;;;0.88;0.10;;;14.90;63.20;;;;;;4973170;28;20423;-42
2022/10/01 07:49:23;;;;;;;0.00;0.00;;;14.90;63.50;;;;;;4977289;28;20061;-48
2022/10/01 07:51:53;;;;;;;0.60;0.28;;;15.00;63.60;;;;;;4970489;28;20387;-43
2022/10/01 07:54:20;;;;;;;0.40;0.20;;;15.00;63.60;;;;;;4971338;28;20073;-45
2022/10/01 07:56:50;;;;;;;0.63;0.20;;;15.00;63.40;;;;;;4970754;28;20174;-45
2022/10/01 07:59:18;;;;;;;0.15;0.10;;;15.10;63.40;;;;;;4974215;28;20181;-46
2022/10/01 08:01:48;;;;;;;0.10;0.10;;;15.10;63.50;;;;;;4971524;28;20058;-45
2022/10/01 08:07:02;;;;;;;0.00;0.00;;;15.10;63.30;;;;;;4979047;28;20061;-42
2022/10/01 08:09:29;;;;;;;0.52;0.10;;;15.20;63.30;;;;;;4973185;28;20384;-46
2022/10/01 08:11:56;;;;;;;0.13;0.10;;;15.20;63.20;;;;;;4972389;28;20046;-45
2022/10/01 08:14:25;;;;;;;2.05;0.13;;;15.30;63.20;;;;;;4983716;28;20049;-42
2022/10/01 08:16:54;;;;;;;1.55;0.20;;;15.30;64.00;;;;;;4978783;28;20058;-41
2022/10/01 08:19:22;;;;;;;0.65;0.40;;;15.30;63.30;;;;;;4983376;28;20062;-40
2022/10/01 08:21:49;;;;;;;0.60;0.40;;;15.30;63.10;;;;;;4984404;28;20057;-45
2022/10/01 08:24:18;;;;;;;2.05;0.20;;;15.30;62.90;;;;;;4983978;28;20058;-40
2022/10/01 08:26:50;;;;;;;0.50;0.20;;;15.40;62.90;;;;;;4978701;28;20050;-42
2022/10/01 08:29:18;;;;;;;1.00;0.10;;;15.40;62.90;;;;;;4978468;28;20070;-46
2022/10/01 08:31:45;;;;;;;0.55;0.10;;;15.40;62.90;;;;;;4982601;28;20494;-46
2022/10/01 08:34:12;;;;;;;3.42;0.10;;;15.40;62.90;;;;;;4982500;28;20396;-43
2022/10/01 08:36:40;;;;;;;2.15;0.17;;;15.50;62.90;;;;;;4983543;28;20391;-43
2022/10/01 08:39:07;;;;;;;5.78;0.40;;;15.50;63.00;;;;;;4983688;28;20054;-46
2022/10/01 08:41:48;;;;;;;0.20;0.10;;;15.50;63.20;;;;;;4984211;28;20513;-45
2022/10/01 08:44:20;;;;;;;1.98;0.10;;;15.60;63.40;;;;;;4982675;28;20055;-43
2022/10/01 08:46:49;;;;;;;0.10;0.00;;;15.60;63.40;;;;;;4982514;28;20062;-49
2022/10/01 08:49:20;;;;;;;0.22;0.10;;;15.60;63.30;;;;;;4983894;28;20050;-47
2022/10/01 08:51:54;;;;;;;0.10;0.10;;;15.70;63.10;;;;;;4983666;28;20061;-42
2022/10/01 08:54:30;;;;;;;0.10;0.05;;;15.70;62.90;;;;;;4983668;28;20061;-41
2022/10/01 08:57:01;;;;;;;0.05;0.05;;;15.70;63.00;;;;;;4983740;28;20061;-47
2022/10/01 08:59:37;;;;;;;0.80;0.10;;;15.70;62.80;;;;;;4983144;28;20061;-46
2022/10/01 09:02:18;;;;;;;0.85;0.03;;;15.80;62.70;;;;;;4981686;28;20051;-49
2022/10/01 09:04:46;;;;;;;0.50;0.10;;;15.80;62.60;;;;;;4983830;28;20651;-45
2022/10/01 09:07:36;;;;;;;0.20;0.10;;;15.90;62.50;;;;;;4981938;28;20065;-43
2022/10/01 09:10:20;;;;;;;0.30;0.00;;;15.90;62.60;;;;;;4980327;28;20065;-46
2022/10/01 09:13:05;;;;;;;0.65;0.10;;;15.90;62.70;;;;;;4981126;28;20501;-44
2022/10/01 09:15:38;;;;;;;0.55;0.20;;;16.00;62.70;;;;;;4980674;28;20065;-42
2022/10/01 09:18:19;;;;;;;0.95;0.15;;;16.00;62.60;;;;;;4982614;28;20065;-48
2022/10/01 09:20:52;;;;;;;4.68;0.20;;;16.00;62.60;;;;;;4982389;28;20065;-41
2022/10/01 09:23:27;;;;;;;0.60;0.30;;;16.10;62.50;;;;;;4983518;28;20058;-42
2022/10/01 09:25:56;;;;;;;0.20;0.13;;;16.10;62.50;;;;;;4981548;28;20051;-47
2022/10/01 09:28:27;;;;;;;0.70;0.00;;;16.10;62.30;;;;;;4982697;28;20411;-46
2022/10/01 09:30:58;;;;;;;0.45;0.15;;;16.20;62.20;;;;;;4976466;28;20046;-44
2022/10/01 09:33:31;;;;;;;0.50;0.20;;;16.20;62.20;;;;;;4981636;28;20058;-43
2022/10/01 09:36:10;;;;;;;1.98;0.70;;;16.20;62.30;;;;;;4980546;28;20398;-47
2022/10/01 09:38:41;;;;;;;1.90;0.80;;;16.30;62.60;;;;;;4979736;28;20081;-42
2022/10/01 09:41:09;;;;;;;2.70;0.40;;;16.30;62.70;;;;;;4982883;28;20062;-42
2022/10/01 09:43:40;;;;;;;0.60;0.40;;;16.30;62.90;;;;;;4982144;28;20517;-46
2022/10/01 09:46:12;;;;;;;0.88;0.43;;;16.40;63.30;;;;;;4978646;28;20054;-45
2022/10/01 09:48:45;;;;;;;1.42;0.20;;;16.30;63.30;;;;;;4985117;28;20054;-47
2022/10/01 09:51:17;;;;;;;3.90;0.38;;;16.40;63.40;;;;;;4987154;28;20517;-45
2022/10/01 09:53:50;;;;;;;0.50;0.15;;;16.40;63.50;;;;;;4981520;28;20054;-43
2022/10/01 09:56:25;;;;;;;1.27;0.30;;;16.50;63.70;;;;;;4983796;28;20418;-46
2022/10/01 09:59:00;;;;;;;1.60;0.30;;;16.50;63.90;;;;;;4984768;28;20073;-43
2022/10/01 10:01:39;;;;;;;1.40;0.30;;;16.50;64.40;;;;;;4984367;28;20064;-43
2022/10/01 10:04:06;;;;;;;1.20;0.40;;;16.50;64.50;;;;;;4982982;28;20495;-45
2022/10/01 10:06:34;;;;;;;2.28;0.20;;;16.60;64.30;;;;;;4983066;28;20062;-45
2022/10/01 10:09:02;;;;;;;1.23;0.35;;;16.60;64.20;;;;;;4986512;28;20581;-43
2022/10/01 10:11:31;;;;;;;1.60;0.45;;;16.60;64.10;;;;;;4985930;28;20450;-44
2022/10/01 10:14:02;;;;;;;0.82;0.38;;;16.70;64.40;;;;;;4984936;28;20053;-41
2022/10/01 10:16:32;;;;;;;0.55;0.20;;;16.70;64.50;;;;;;4983659;28;20066;-41
2022/10/01 10:19:02;;;;;;;0.60;0.40;;;16.70;64.40;;;;;;4982973;28;20534;-49
2022/10/01 10:21:32;;;;;;;1.25;0.30;;;16.80;64.50;;;;;;4984294;28;20055;-43
2022/10/01 10:24:01;;;;;;;0.85;0.30;;;16.80;64.60;;;;;;4966539;28;20061;-42
2022/10/01 10:26:32;;;;;;;0.45;0.28;;;16.90;64.70;;;;;;4960041;28;20050;-45
2022/10/01 10:29:02;;;;;;;1.58;0.45;;;16.90;64.80;;;;;;4970234;28;21288;-43
2022/10/01 10:31:35;;;;;;;1.80;0.40;;;16.90;64.80;;;;;;4962099;28;20499;-41
2022/10/01 10:34:12;;;;;;;1.43;0.50;;;17.00;65.00;;;;;;4966041;28;20494;-50
2022/10/01 10:36:40;;;;;;;1.13;0.30;;;17.00;64.90;;;;;;4962947;28;20061;-43
2022/10/01 10:39:18;;;;;;;4.30;0.95;;;17.10;65.00;;;;;;4961931;28;21325;-49
2022/10/01 10:41:48;;;;;;;3.10;0.70;;;17.20;65.20;;;;;;4961262;28;20058;-44
2022/10/01 10:44:20;;;;;;;0.63;0.50;;;17.20;64.90;;;;;;4961802;28;20053;-43
2022/10/01 10:46:48;;;;;;;2.05;0.55;;;17.30;64.80;;;;;;4960429;28;20422;-42
2022/10/01 10:49:20;;;;;;;1.83;0.63;;;17.30;64.80;;;;;;4970122;28;20054;-42
2022/10/01 10:51:50;;;;;;;2.63;0.77;;;17.40;64.80;;;;;;4961241;28;20058;-46
2022/10/01 10:54:23;;;;;;;4.78;0.98;;;17.40;64.60;;;;;;4964515;28;20410;-45
2022/10/01 10:57:01;;;;;;;6.50;1.10;;;17.50;63.80;;;;;;4961014;28;20732;-44
2022/10/01 10:59:32;;;;;;;5.80;1.80;;;17.50;63.40;;;;;;4963178;28;20061;-47
2022/10/01 11:02:00;;;;;;;4.32;1.23;;;17.50;63.00;;;;;;4965212;28;20376;-49
2022/10/01 11:04:37;;;;;;;16.50;5.22;;;17.60;62.80;;;;;;4963705;28;20414;-47
2022/10/01 11:07:04;;;;;;;16.35;5.47;;;17.60;62.80;;;;;;4964853;28;20641;-43
2022/10/01 11:09:44;;;;;;;39.58;14.73;;;17.60;62.80;;;;;;4961177;28;20062;-42
2022/10/01 11:12:23;;;;;;;7.68;2.60;;;17.70;63.30;;;;;;4963114;28;20510;-44
2022/10/01 11:15:08;;;;;;;5.97;1.92;;;17.70;63.50;;;;;;4966725;28;20050;-45
2022/10/01 11:18:09;;;;;;;7.90;2.00;;;17.80;64.10;;;;;;4967630;28;20416;-47
2022/10/01 11:20:42;;;;;;;7.43;2.50;;;17.70;63.90;;;;;;4925409;28;20077;-40
2022/10/01 11:23:40;;;;;;;11.30;2.03;;;17.70;63.90;;;;;;4961774;28;20786;-44
2022/10/01 11:26:20;;;;;;;8.02;2.78;;;17.70;64.50;;;;;;4943553;28;20054;-41
2022/10/01 11:29:02;;;;;;;9.25;2.50;;;17.70;64.80;;;;;;4960968;28;20069;-42
2022/10/01 11:31:38;;;;;;;7.25;2.42;;;17.70;64.90;;;;;;4967166;28;20112;-46
2022/10/01 11:34:23;;;;;;;13.77;3.20;;;17.80;64.70;;;;;;4960347;28;20418;-44
2022/10/01 11:36:59;;;;;;;9.32;2.60;;;17.80;66.40;;;;;;4962569;28;20058;-46
2022/10/01 11:39:29;;;;;;;10.95;4.22;;;17.90;66.70;;;;;;4961896;28;20046;-44
2022/10/01 11:42:01;;;;;;;5.57;2.03;;;17.90;66.90;;;;;;4959252;28;20482;-44
2022/10/01 11:44:32;;;;;;;7.78;1.80;;;18.00;67.00;;;;;;4963458;28;20057;-45
2022/10/01 11:47:05;;;;;;;11.32;2.20;;;18.10;66.10;;;;;;4963239;28;20410;-46
2022/10/01 11:49:48;;;;;;;8.57;1.42;;;18.20;64.70;;;;;;4964068;28;20054;-45
2022/10/01 11:52:23;;;;;;;9.52;1.88;;;18.30;62.30;;;;;;4975698;28;20047;-51
2022/10/01 11:58:49;;;;;;;12.90;2.13;;;18.40;61.30;;;;;;4984099;28;20481;-42
2022/10/01 12:00:41;;;;;;;8.68;2.30;;;18.50;59.40;;;;;;4989412;28;20418;-43
2022/10/01 12:03:18;;;;;;;8.13;1.67;;;18.60;59.60;;;;;;4981477;28;20046;-44
2022/10/01 12:05:46;;;;;;;8.27;1.58;;;18.70;60.50;;;;;;4967031;28;21993;-45
2022/10/01 12:08:20;;;;;;;11.25;2.28;;;18.80;59.30;;;;;;4977987;28;20050;-41
2022/10/01 12:10:53;;;;;;;8.93;1.83;;;18.80;58.90;;;;;;4981453;28;20061;-44
2022/10/01 12:13:27;;;;;;;10.60;1.93;;;18.90;59.40;;;;;;4982391;28;20061;-43
2022/10/01 12:15:56;;;;;;;;;;;19.00;58.00;;;;;;4982657;28;20489;-39
2022/10/01 12:18:30;;;;;;;6.85;1.45;;;19.10;58.10;;;;;;4985067;28;20289;-39
2022/10/01 12:21:01;;;;;;;6.88;1.88;;;19.10;57.70;;;;;;4984057;28;20062;-44
2022/10/01 12:23:32;;;;;;;7.97;1.75;;;19.10;57.40;;;;;;4984485;28;20406;-41
2022/10/01 12:26:06;;;;;;;9.85;2.15;;;19.20;57.10;;;;;;4981936;28;20494;-44
2022/10/01 12:28:36;;;;;;;;;;;19.20;57.00;;;;;;4984228;28;20418;-44
2022/10/01 12:31:08;;;;;;;2.78;1.30;;;19.30;57.30;;;;;;4983043;28;19925;-42
2022/10/01 12:34:05;;;;;;;6.50;1.50;;;19.30;56.60;;;;;;4982502;28;20066;-44
2022/10/01 12:36:45;;;;;;;7.78;1.85;;;19.30;56.70;;;;;;4983090;28;20486;-45
2022/10/01 12:39:28;;;;;;;8.35;2.50;;;19.30;55.80;;;;;;4983130;28;20538;-43
2022/10/01 12:42:09;;;;;;;6.57;1.85;;;19.40;55.80;;;;;;4984576;28;20422;-48
2022/10/01 12:44:49;;;;;;;11.82;1.80;;;19.40;55.90;;;;;;4983214;28;20054;-47
2022/10/01 12:47:37;;;;;;;6.63;1.60;;;19.50;55.40;;;;;;4980218;28;20068;-48
2022/10/01 12:50:22;;;;;;;10.48;1.60;;;19.60;55.10;;;;;;4983591;28;20054;-46
2022/10/01 12:53:05;;;;;;;8.15;2.15;;;19.70;54.60;;;;;;4983870;28;20054;-44
2022/10/01 12:55:49;;;;;;;10.10;1.95;;;19.70;54.20;;;;;;4981086;28;20054;-44
2022/10/01 12:58:33;;;;;;;8.80;1.95;;;19.70;53.10;;;;;;4983687;28;20419;-42
2022/10/01 13:01:08;;;;;;;6.40;1.85;;;19.80;53.20;;;;;;4982756;28;20054;-43
2022/10/01 13:03:53;;;;;;;14.88;2.17;;;19.70;53.40;;;;;;4984044;28;20057;-43
2022/10/01 13:06:29;;;;;;;5.97;1.65;;;19.70;52.70;;;;;;4981364;28;20533;-47
2022/10/01 13:09:06;;;;;;;13.18;2.60;;;19.60;53.40;;;;;;4983218;28;20054;-48
2022/10/01 13:11:57;;;;;;;9.43;2.30;;;19.50;54.90;;;;;;4981974;28;20065;-51
2022/10/01 13:14:25;;;;;;;11.70;2.08;;;19.40;54.60;;;;;;4983660;28;20050;-44
2022/10/01 13:16:59;;;;;;;7.07;2.00;;;19.20;54.90;;;;;;4981966;28;20054;-45